Time;durP1;ratioP1;P1;durP2;ratioP2;P2;SDS_P1;SDS_P2;PMS_P1;PMS_P2;Temp;Humidity;BMP_temperature;BMP_pressure;BME280_temperature;BME280_humidity;BME280_pressure;Samples;Min_cycle;Max_cycle;Signal;HPM_P1;HPM_P2
2023/06/02 00:01:35;;;;;;;11.48;3.20;;;10.10;99.90;;;;;;4900611;29;20495;-86
2023/06/02 00:04:01;;;;;;;10.90;2.78;;;10.10;99.90;;;;;;4900572;29;20044;-85
2023/06/02 00:06:30;;;;;;;14.13;3.13;;;10.20;99.90;;;;;;4898053;29;20040;-86
2023/06/02 00:08:57;;;;;;;13.30;3.33;;;10.10;99.90;;;;;;4900465;29;20483;-85
2023/06/02 00:11:23;;;;;;;11.85;3.05;;;10.10;99.90;;;;;;4899616;29;20544;-86
2023/06/02 00:13:49;;;;;;;11.77;3.08;;;10.30;99.90;;;;;;4897876;29;20036;-86
2023/06/02 00:16:15;;;;;;;11.32;2.90;;;10.10;99.90;;;;;;4898305;29;20049;-86
2023/06/02 00:18:43;;;;;;;10.50;3.10;;;10.00;99.90;;;;;;4898891;29;20075;-86
2023/06/02 00:21:09;;;;;;;10.13;3.13;;;10.00;99.90;;;;;;4899092;29;20055;-85
2023/06/02 00:23:35;;;;;;;12.15;2.70;;;10.00;99.90;;;;;;4900132;29;20044;-86
2023/06/02 00:26:01;;;;;;;10.65;2.83;;;10.00;99.90;;;;;;4897958;29;20092;-86
2023/06/02 00:28:27;;;;;;;11.77;3.08;;;10.00;99.90;;;;;;4897814;29;20056;-86
2023/06/02 00:30:53;;;;;;;15.15;3.17;;;10.00;99.90;;;;;;4898748;29;20056;-85
2023/06/02 00:33:19;;;;;;;10.85;2.90;;;10.50;99.90;;;;;;4897638;29;20052;-86
2023/06/02 00:35:44;;;;;;;11.40;2.88;;;10.00;99.90;;;;;;4899891;29;20144;-86
2023/06/02 00:38:10;;;;;;;12.05;3.65;;;10.00;99.90;;;;;;4897931;29;20365;-86
2023/06/02 00:40:36;;;;;;;9.95;2.70;;;10.00;99.90;;;;;;4898959;29;20112;-86
2023/06/02 00:43:02;;;;;;;10.38;2.70;;;10.00;99.90;;;;;;4898207;29;20049;-85
2023/06/02 00:45:27;;;;;;;15.98;3.55;;;10.00;99.90;;;;;;4899444;29;20128;-85
2023/06/02 00:47:53;;;;;;;12.75;3.13;;;10.00;99.90;;;;;;4899050;29;20128;-86
2023/06/02 00:50:19;;;;;;;12.63;2.88;;;9.90;99.90;;;;;;4898415;29;20067;-86
2023/06/02 00:52:49;;;;;;;9.80;2.95;;;9.90;99.90;;;;;;4899960;29;20493;-85
2023/06/02 00:55:15;;;;;;;14.88;3.35;;;10.80;99.90;;;;;;4898107;29;20056;-85
2023/06/02 00:57:40;;;;;;;15.32;3.35;;;9.90;99.90;;;;;;4899510;29;20045;-86
2023/06/02 01:00:09;;;;;;;17.85;3.30;;;9.90;99.90;;;;;;4898940;29;20059;-86
2023/06/02 01:02:35;;;;;;;14.70;3.42;;;9.90;99.90;;;;;;4897175;29;20143;-86
2023/06/02 01:05:06;;;;;;;10.10;3.20;;;9.80;99.90;;;;;;4898553;29;20053;-85
2023/06/02 01:07:33;;;;;;;12.70;3.17;;;9.80;99.90;;;;;;4899292;29;20060;-86
2023/06/02 01:10:02;;;;;;;13.65;2.88;;;9.80;99.90;;;;;;4897140;29;20548;-85
2023/06/02 01:12:29;;;;;;;11.98;2.85;;;9.80;99.90;;;;;;4897778;29;20048;-85
2023/06/02 01:14:54;;;;;;;11.43;2.85;;;10.20;99.90;;;;;;4897700;29;20060;-86
2023/06/02 01:17:27;;;;;;;16.75;3.30;;;9.70;99.90;;;;;;4897875;29;20044;-85
2023/06/02 01:19:53;;;;;;;15.02;2.92;;;9.70;99.90;;;;;;4898892;29;20504;-85
2023/06/02 01:22:23;;;;;;;15.00;3.28;;;9.70;99.90;;;;;;4898024;29;20510;-86
2023/06/02 01:24:49;;;;;;;16.08;3.38;;;9.70;99.90;;;;;;4897507;29;20044;-85
2023/06/02 01:27:16;;;;;;;10.13;3.03;;;9.70;99.90;;;;;;4897357;29;20053;-85
2023/06/02 01:29:43;;;;;;;14.73;3.13;;;9.70;99.90;;;;;;4897874;29;20056;-85
2023/06/02 01:32:23;;;;;;;14.98;3.10;;;9.70;99.90;;;;;;4897066;29;20045;-89
2023/06/02 01:35:06;;;;;;;11.98;2.67;;;9.70;99.90;;;;;;4898748;29;20044;-88
2023/06/02 01:37:33;;;;;;;15.32;3.08;;;9.70;99.90;;;;;;4898108;29;20051;-88
2023/06/02 01:40:05;;;;;;;14.75;2.83;;;9.60;99.90;;;;;;4897304;29;20511;-88
2023/06/02 01:42:33;;;;;;;13.57;2.85;;;9.60;99.90;;;;;;4897045;29;20052;-88
2023/06/02 01:45:01;;;;;;;13.27;3.50;;;9.60;99.90;;;;;;4896615;29;20126;-89
2023/06/02 01:47:27;;;;;;;13.80;3.17;;;9.50;99.90;;;;;;4897893;29;20401;-85
2023/06/02 01:49:53;;;;;;;14.05;3.30;;;9.60;99.90;;;;;;4898941;29;20045;-86
2023/06/02 01:52:18;;;;;;;16.98;3.38;;;9.50;99.90;;;;;;4896527;29;20397;-90
2023/06/02 01:54:57;;;;;;;;;;;;;;;;;;;;;
2023/06/02 01:57:29;;;;;;;14.32;3.20;;;9.70;99.90;;;;;;4896835;29;20421;-90
2023/06/02 01:59:55;;;;;;;15.45;3.47;;;10.00;99.90;;;;;;4898193;29;20045;-89
2023/06/02 02:02:20;;;;;;;15.32;3.22;;;9.80;99.90;;;;;;4897909;29;20048;-86
2023/06/02 02:04:46;;;;;;;15.27;3.53;;;9.50;99.90;;;;;;4896266;29;20048;-85
2023/06/02 02:07:12;;;;;;;18.52;2.90;;;9.50;99.90;;;;;;4898218;29;20059;-85
2023/06/02 02:09:38;;;;;;;17.35;3.20;;;10.20;99.90;;;;;;4896784;29;20103;-86
2023/06/02 02:12:05;;;;;;;16.52;3.85;;;9.60;99.90;;;;;;4896319;29;20057;-85
2023/06/02 02:14:30;;;;;;;13.18;2.80;;;9.60;99.90;;;;;;4897964;29;20119;-85
2023/06/02 02:17:00;;;;;;;16.45;3.35;;;9.60;99.90;;;;;;4896677;29;20139;-85
2023/06/02 02:19:31;;;;;;;12.10;3.53;;;9.60;99.90;;;;;;4895749;29;20064;-85
2023/06/02 02:22:00;;;;;;;14.75;2.95;;;9.60;99.90;;;;;;4896909;29;20048;-85
2023/06/02 02:24:25;;;;;;;13.20;3.15;;;10.50;99.90;;;;;;4896350;29;20580;-87
2023/06/02 02:26:51;;;;;;;12.95;2.85;;;9.60;99.90;;;;;;4897413;29;20119;-86
2023/06/02 02:29:17;;;;;;;12.27;2.90;;;9.60;99.90;;;;;;4896175;29;20528;-86
2023/06/02 02:31:42;;;;;;;20.15;3.20;;;9.70;99.90;;;;;;4896760;29;20087;-86
2023/06/02 02:34:08;;;;;;;15.10;3.05;;;9.70;99.90;;;;;;4895639;29;20056;-86
2023/06/02 02:36:34;;;;;;;16.30;2.97;;;9.70;99.90;;;;;;4897682;29;20049;-86
2023/06/02 02:39:00;;;;;;;12.38;2.70;;;9.70;99.90;;;;;;4896627;29;20045;-86
2023/06/02 02:41:26;;;;;;;14.30;3.17;;;9.70;99.90;;;;;;4899006;29;20045;-86
2023/06/02 02:43:51;;;;;;;15.57;2.97;;;9.70;99.90;;;;;;4899314;29;20048;-85
2023/06/02 02:46:17;;;;;;;17.58;3.28;;;9.70;99.90;;;;;;4898454;29;20041;-87
2023/06/02 02:48:42;;;;;;;12.25;3.03;;;9.70;99.90;;;;;;4896324;29;20143;-85
2023/06/02 02:51:08;;;;;;;13.52;3.60;;;9.70;99.90;;;;;;4896377;29;20045;-86
2023/06/02 02:53:34;;;;;;;14.02;3.08;;;9.70;99.90;;;;;;4898392;29;20044;-86
2023/06/02 02:55:59;;;;;;;14.80;2.90;;;10.00;99.90;;;;;;4900819;29;20056;-86
2023/06/02 02:58:26;;;;;;;14.18;3.20;;;9.70;99.90;;;;;;4899987;29;20182;-86
2023/06/02 03:00:52;;;;;;;12.40;2.90;;;9.70;99.90;;;;;;4899381;29;20052;-85
2023/06/02 03:03:17;;;;;;;17.17;3.22;;;10.60;99.90;;;;;;4899967;29;20100;-85
2023/06/02 03:05:45;;;;;;;14.05;3.00;;;9.70;99.90;;;;;;4901531;29;20142;-86
2023/06/02 03:08:12;;;;;;;11.98;2.90;;;9.60;99.90;;;;;;4899465;29;20064;-86
2023/06/02 03:10:39;;;;;;;13.57;2.80;;;9.60;99.90;;;;;;4900176;29;20120;-86
2023/06/02 03:13:07;;;;;;;13.88;3.30;;;9.60;99.90;;;;;;4900822;29;20040;-86
2023/06/02 03:15:33;;;;;;;13.88;2.80;;;9.70;99.90;;;;;;4899454;29;20044;-86
2023/06/02 03:17:59;;;;;;;11.85;2.72;;;9.60;99.90;;;;;;4914263;29;20055;-85
2023/06/02 03:20:25;;;;;;;17.08;3.15;;;9.90;99.90;;;;;;4921003;29;20064;-85
2023/06/02 03:22:51;;;;;;;13.95;2.88;;;9.70;99.90;;;;;;4901396;29;20037;-86
2023/06/02 03:25:20;;;;;;;16.60;2.90;;;9.70;99.90;;;;;;4899951;29;20450;-85
2023/06/02 03:27:47;;;;;;;12.63;2.95;;;9.70;99.90;;;;;;4899797;29;20060;-86
2023/06/02 03:30:13;;;;;;;15.15;2.70;;;9.70;99.90;;;;;;4899071;29;20048;-86
2023/06/02 03:32:38;;;;;;;11.80;2.65;;;9.70;99.90;;;;;;4900174;29;20501;-85
2023/06/02 03:35:04;;;;;;;18.33;2.80;;;9.70;99.90;;;;;;4899791;29;20097;-86
2023/06/02 03:37:30;;;;;;;15.15;3.05;;;9.70;99.90;;;;;;4899439;29;20060;-86
2023/06/02 03:39:55;;;;;;;14.60;2.63;;;9.70;99.90;;;;;;4901833;29;20048;-86
2023/06/02 03:42:21;;;;;;;13.88;2.78;;;9.70;99.90;;;;;;4900221;29;20370;-86
2023/06/02 03:44:47;;;;;;;12.70;2.97;;;9.70;99.90;;;;;;4900117;29;20049;-85
2023/06/02 03:47:12;;;;;;;17.60;3.00;;;9.70;99.90;;;;;;4900655;29;20051;-86
2023/06/02 03:49:41;;;;;;;17.20;3.28;;;9.80;99.90;;;;;;4899491;29;20192;-85
2023/06/02 03:52:06;;;;;;;16.00;3.15;;;9.80;99.90;;;;;;4899555;29;20037;-85
2023/06/02 03:54:32;;;;;;;12.55;2.78;;;9.80;99.90;;;;;;4900483;29;20071;-86
2023/06/02 03:56:58;;;;;;;11.60;3.03;;;10.80;99.90;;;;;;4899736;29;20124;-85
2023/06/02 03:59:23;;;;;;;17.02;2.80;;;9.80;99.90;;;;;;4899136;29;20048;-86
2023/06/02 04:01:49;;;;;;;14.48;3.00;;;9.80;99.90;;;;;;4899025;29;20044;-85
2023/06/02 04:04:15;;;;;;;18.48;3.00;;;9.80;99.90;;;;;;4898444;29;20040;-85
2023/06/02 04:06:43;;;;;;;15.00;2.90;;;9.80;99.90;;;;;;4898533;29;20072;-86
2023/06/02 04:09:12;;;;;;;16.40;2.75;;;9.90;99.90;;;;;;4897710;29;20068;-86
2023/06/02 04:11:39;;;;;;;12.07;2.80;;;10.80;99.90;;;;;;4899434;29;20040;-86
2023/06/02 04:14:04;;;;;;;13.35;2.60;;;9.90;99.90;;;;;;4900110;29;20417;-86
2023/06/02 04:16:30;;;;;;;14.18;2.92;;;9.90;99.90;;;;;;4898687;29;20520;-86
2023/06/02 04:18:56;;;;;;;12.95;2.72;;;9.90;99.90;;;;;;4899265;29;20056;-85
2023/06/02 04:21:21;;;;;;;14.43;2.83;;;10.00;99.90;;;;;;4898648;29;20045;-86
2023/06/02 04:23:47;;;;;;;13.57;2.65;;;9.90;99.90;;;;;;4900029;29;20051;-86
2023/06/02 04:26:13;;;;;;;14.00;3.72;;;10.00;99.90;;;;;;4897390;29;20040;-86
2023/06/02 04:28:38;;;;;;;15.32;2.83;;;10.00;99.90;;;;;;4898611;29;20065;-86
2023/06/02 04:31:07;;;;;;;12.18;2.70;;;10.00;99.90;;;;;;4900698;29;20045;-86
2023/06/02 04:33:33;;;;;;;15.15;3.47;;;10.10;99.90;;;;;;4899025;29;20068;-87
2023/06/02 04:35:58;;;;;;;17.45;2.75;;;10.10;99.90;;;;;;4901182;29;20094;-87
2023/06/02 04:38:24;;;;;;;14.88;3.35;;;10.80;99.90;;;;;;4898761;29;20140;-87
2023/06/02 04:40:50;;;;;;;13.30;3.17;;;10.10;99.90;;;;;;4899291;29;20052;-87
2023/06/02 04:43:16;;;;;;;11.15;2.67;;;10.90;99.90;;;;;;4899788;29;20166;-86
2023/06/02 04:45:45;;;;;;;14.48;3.45;;;10.20;99.90;;;;;;4900557;29;20505;-87
2023/06/02 04:48:11;;;;;;;17.38;3.72;;;10.20;99.90;;;;;;4897814;29;20050;-87
2023/06/02 04:50:37;;;;;;;12.98;2.90;;;10.20;99.90;;;;;;4898563;29;20052;-87
2023/06/02 04:53:03;;;;;;;15.43;3.00;;;10.30;99.90;;;;;;4899919;29;20032;-87
2023/06/02 04:55:28;;;;;;;17.25;3.30;;;10.30;99.90;;;;;;4898009;29;20047;-86
2023/06/02 04:57:54;;;;;;;12.80;2.83;;;10.40;99.90;;;;;;4899498;29;20077;-87
2023/06/02 05:00:20;;;;;;;13.00;2.95;;;10.40;99.90;;;;;;4897754;29;20056;-86
2023/06/02 05:02:45;;;;;;;13.32;2.95;;;10.40;99.90;;;;;;4898223;29;20135;-86
2023/06/02 05:05:11;;;;;;;18.58;3.00;;;10.50;99.90;;;;;;4897923;29;20111;-87
2023/06/02 05:07:37;;;;;;;17.02;3.42;;;10.50;99.90;;;;;;4899124;29;20127;-87
2023/06/02 05:10:04;;;;;;;19.90;3.15;;;11.70;99.90;;;;;;4898422;29;20045;-87
2023/06/02 05:12:30;;;;;;;16.05;2.97;;;10.60;99.90;;;;;;4898290;29;20556;-86
2023/06/02 05:14:56;;;;;;;15.73;3.00;;;10.60;99.90;;;;;;4898070;29;20052;-87
2023/06/02 05:17:23;;;;;;;15.90;3.28;;;11.70;99.90;;;;;;4897736;29;20049;-86
2023/06/02 05:19:50;;;;;;;14.38;3.90;;;10.70;99.90;;;;;;4900025;29;20088;-87
2023/06/02 05:22:16;;;;;;;15.23;2.95;;;10.70;99.90;;;;;;4898126;29;20060;-86
2023/06/02 05:24:42;;;;;;;15.45;3.15;;;10.80;99.90;;;;;;4899495;29;20504;-87
2023/06/02 05:27:07;;;;;;;18.15;3.95;;;10.90;99.90;;;;;;4900590;29;20053;-87
2023/06/02 05:29:33;;;;;;;15.18;2.85;;;11.30;99.90;;;;;;4899355;29;20060;-87
2023/06/02 05:31:59;;;;;;;13.43;2.95;;;11.80;99.90;;;;;;4901027;29;20131;-87
2023/06/02 05:34:25;;;;;;;11.80;3.13;;;11.10;99.90;;;;;;4896974;29;20100;-85
2023/06/02 05:36:50;;;;;;;25.77;3.42;;;11.10;99.90;;;;;;4896540;29;20041;-86
2023/06/02 05:39:16;;;;;;;17.35;2.80;;;11.00;99.90;;;;;;4898470;29;20041;-86
2023/06/02 05:41:42;;;;;;;16.42;3.10;;;11.10;99.90;;;;;;4897122;29;20405;-86
2023/06/02 05:44:08;;;;;;;17.10;3.65;;;11.10;99.90;;;;;;4897802;29;20369;-86
2023/06/02 05:46:34;;;;;;;11.38;3.17;;;11.10;99.90;;;;;;4897186;29;20112;-86
2023/06/02 05:48:59;;;;;;;17.50;3.60;;;11.20;99.90;;;;;;4898165;29;20056;-86
2023/06/02 05:51:27;;;;;;;14.20;3.15;;;12.20;99.90;;;;;;4897400;29;20044;-86
2023/06/02 05:53:53;;;;;;;17.02;3.35;;;11.70;99.90;;;;;;4898396;29;20048;-86
2023/06/02 05:56:19;;;;;;;15.45;3.25;;;11.20;99.90;;;;;;4897859;29;20044;-86
2023/06/02 05:58:46;;;;;;;15.63;2.88;;;11.30;99.90;;;;;;4897678;29;20048;-85
2023/06/02 06:01:11;;;;;;;21.48;3.72;;;11.30;99.90;;;;;;4896669;29;20048;-86
2023/06/02 06:03:37;;;;;;;19.60;3.45;;;11.30;99.90;;;;;;4896302;29;20048;-86
2023/06/02 06:06:03;;;;;;;14.93;3.28;;;11.30;99.90;;;;;;4896821;29;20139;-87
2023/06/02 06:08:29;;;;;;;16.55;3.75;;;11.30;99.90;;;;;;4900808;29;20048;-86
2023/06/02 06:10:55;;;;;;;17.50;3.20;;;11.90;99.90;;;;;;4899755;29;20124;-86
2023/06/02 06:13:22;;;;;;;16.42;3.88;;;11.40;99.90;;;;;;4898011;29;20489;-87
2023/06/02 06:15:48;;;;;;;14.80;3.20;;;11.40;99.90;;;;;;4898900;29;20088;-87
2023/06/02 06:18:14;;;;;;;20.23;3.88;;;11.50;99.90;;;;;;4895991;29;20143;-86
2023/06/02 06:20:43;;;;;;;16.65;3.72;;;11.60;99.90;;;;;;4897875;29;20048;-85
2023/06/02 06:23:10;;;;;;;16.05;3.42;;;11.60;99.90;;;;;;4910961;29;20052;-86
2023/06/02 06:25:36;;;;;;;14.93;3.67;;;11.50;99.90;;;;;;4905412;29;20059;-86
2023/06/02 06:28:02;;;;;;;19.15;3.80;;;11.60;99.90;;;;;;4897198;29;20135;-86
2023/06/02 06:30:27;;;;;;;14.55;3.78;;;11.60;99.90;;;;;;4897956;29;20480;-86
2023/06/02 06:32:54;;;;;;;17.02;3.60;;;11.70;99.90;;;;;;4895993;29;20048;-86
2023/06/02 06:35:20;;;;;;;16.90;3.50;;;11.70;99.90;;;;;;4897625;29;20056;-86
2023/06/02 06:37:46;;;;;;;14.35;3.60;;;12.50;99.90;;;;;;4896743;29;20040;-86
2023/06/02 06:40:12;;;;;;;20.17;4.07;;;11.80;99.90;;;;;;4896063;29;20532;-87
2023/06/02 06:42:38;;;;;;;14.35;3.97;;;11.90;99.90;;;;;;4897678;29;20398;-86
2023/06/02 06:45:04;;;;;;;15.07;3.20;;;12.00;99.90;;;;;;4896676;29;20049;-86
2023/06/02 06:47:29;;;;;;;16.65;3.30;;;12.00;99.90;;;;;;4896661;29;20146;-86
2023/06/02 06:49:55;;;;;;;21.95;3.88;;;12.70;99.90;;;;;;4896945;29;20045;-86
2023/06/02 06:52:21;;;;;;;17.33;3.95;;;13.10;99.90;;;;;;4897527;29;20059;-85
2023/06/02 06:54:46;;;;;;;18.02;3.83;;;12.60;99.90;;;;;;4896108;29;20055;-86
2023/06/02 06:57:12;;;;;;;14.50;3.65;;;12.20;99.90;;;;;;4896349;29;20494;-85
2023/06/02 06:59:42;;;;;;;19.15;4.10;;;12.60;99.90;;;;;;4898072;29;20053;-85
2023/06/02 07:02:08;;;;;;;16.73;4.03;;;12.30;99.90;;;;;;4897223;29;20128;-81
2023/06/02 07:04:33;;;;;;;19.98;4.13;;;12.40;99.90;;;;;;4896718;29;20469;-81
2023/06/02 07:06:59;;;;;;;16.65;3.78;;;12.50;99.90;;;;;;4897199;29;20060;-81
2023/06/02 07:09:28;;;;;;;17.90;4.07;;;12.60;99.90;;;;;;4896125;29;20510;-81
2023/06/02 07:11:53;;;;;;;19.77;4.13;;;12.60;99.90;;;;;;4897488;29;20543;-81
2023/06/02 07:14:19;;;;;;;16.90;4.28;;;12.60;99.90;;;;;;4896589;29;20126;-81
2023/06/02 07:16:46;;;;;;;14.13;3.60;;;13.50;99.90;;;;;;4897789;29;20037;-81
2023/06/02 07:19:11;;;;;;;20.77;5.03;;;12.70;99.90;;;;;;4897472;29;20100;-81
2023/06/02 07:21:37;;;;;;;20.13;4.20;;;13.30;99.90;;;;;;4896862;29;20044;-81
2023/06/02 07:24:03;;;;;;;21.33;4.68;;;13.30;99.90;;;;;;4897583;29;20037;-81
2023/06/02 07:26:28;;;;;;;19.60;4.90;;;12.90;99.90;;;;;;4897113;29;20127;-81
2023/06/02 07:28:57;;;;;;;21.20;4.55;;;12.90;99.90;;;;;;4895332;29;20056;-82
2023/06/02 07:31:22;;;;;;;20.40;5.32;;;13.00;99.90;;;;;;4897066;29;20091;-82
2023/06/02 07:33:48;;;;;;;15.80;3.97;;;13.00;99.90;;;;;;4895829;29;20091;-81
2023/06/02 07:36:14;;;;;;;16.55;4.32;;;13.90;99.90;;;;;;4895213;29;20053;-81
2023/06/02 07:38:55;;;;;;;17.63;4.85;;;13.20;99.90;;;;;;4895768;29;20056;-80
2023/06/02 07:41:34;;;;;;;19.08;5.13;;;13.30;99.90;;;;;;4900569;29;20052;-80
2023/06/02 07:43:59;;;;;;;21.02;4.57;;;13.70;99.90;;;;;;4898766;29;20460;-81
2023/06/02 07:46:25;;;;;;;15.55;4.57;;;14.30;99.90;;;;;;4899009;29;20417;-81
2023/06/02 07:48:53;;;;;;;19.02;4.43;;;14.00;99.90;;;;;;4899439;29;20055;-80
2023/06/02 07:51:18;;;;;;;22.85;5.07;;;13.60;99.90;;;;;;4898387;29;20192;-81
2023/06/02 07:53:44;;;;;;;22.55;4.47;;;14.00;99.90;;;;;;4900230;29;20508;-81
2023/06/02 07:56:09;;;;;;;15.75;4.20;;;13.70;99.90;;;;;;4899523;29;20045;-81
2023/06/02 07:58:35;;;;;;;17.80;4.40;;;14.90;99.90;;;;;;4900471;29;20481;-81
2023/06/02 08:01:01;;;;;;;19.63;5.18;;;14.50;99.90;;;;;;4900487;29;20052;-80
2023/06/02 08:03:27;;;;;;;19.27;4.47;;;14.00;99.90;;;;;;4898380;29;20171;-81
2023/06/02 08:05:52;;;;;;;17.38;4.22;;;14.00;99.90;;;;;;4900281;29;20108;-81
2023/06/02 08:08:18;;;;;;;20.30;4.80;;;14.10;99.90;;;;;;4899944;29;20460;-81
2023/06/02 08:10:43;;;;;;;24.27;5.18;;;15.00;99.90;;;;;;4899570;29;20048;-81
2023/06/02 08:13:11;;;;;;;16.88;5.00;;;14.20;99.90;;;;;;4898469;29;20561;-81
2023/06/02 08:15:37;;;;;;;17.98;4.80;;;14.20;99.90;;;;;;4898608;29;20070;-81
2023/06/02 08:18:02;;;;;;;20.45;4.75;;;15.10;99.90;;;;;;4899413;29;20069;-81
2023/06/02 08:20:28;;;;;;;19.27;5.22;;;14.90;99.90;;;;;;4898370;29;20052;-81
2023/06/02 08:22:55;;;;;;;17.40;5.10;;;15.50;99.90;;;;;;4899843;29;20124;-81
2023/06/02 08:25:21;;;;;;;18.52;4.75;;;15.90;99.90;;;;;;4904885;23;20045;-81
2023/06/02 08:27:47;;;;;;;16.92;4.60;;;15.60;99.90;;;;;;4898572;29;20076;-81
2023/06/02 08:30:13;;;;;;;18.52;4.85;;;15.40;99.90;;;;;;4899703;29;20393;-81
2023/06/02 08:32:43;;;;;;;21.75;5.53;;;15.20;99.90;;;;;;4899050;29;20055;-81
2023/06/02 08:35:09;;;;;;;17.40;4.85;;;15.50;99.90;;;;;;4897995;29;20500;-81
2023/06/02 08:37:35;;;;;;;21.80;5.10;;;15.20;99.90;;;;;;4898543;29;20144;-81
2023/06/02 08:40:01;;;;;;;20.48;4.82;;;15.70;99.90;;;;;;4897555;29;20060;-81
2023/06/02 08:42:26;;;;;;;15.35;4.53;;;15.20;99.90;;;;;;4899241;29;20401;-81
2023/06/02 08:44:52;;;;;;;17.00;4.97;;;15.30;99.90;;;;;;4898546;29;20143;-81
2023/06/02 08:47:23;;;;;;;21.15;5.43;;;15.50;99.90;;;;;;4898694;29;20052;-81
2023/06/02 08:49:50;;;;;;;19.38;5.50;;;15.90;99.90;;;;;;4898202;29;20063;-81
2023/06/02 08:52:20;;;;;;;29.90;5.53;;;15.10;99.90;;;;;;4898375;29;20127;-81
2023/06/02 08:54:46;;;;;;;17.38;5.15;;;15.10;99.90;;;;;;4897864;29;20045;-81
2023/06/02 08:57:16;;;;;;;16.75;4.82;;;15.20;99.90;;;;;;4899050;29;20044;-81
2023/06/02 08:59:45;;;;;;;17.23;4.63;;;15.80;99.90;;;;;;4897528;29;20064;-80
2023/06/02 09:02:11;;;;;;;16.48;4.88;;;15.70;99.90;;;;;;4899103;29;20048;-81
2023/06/02 09:04:37;;;;;;;18.42;4.47;;;15.90;99.90;;;;;;4897897;29;20051;-81
2023/06/02 09:07:12;;;;;;;18.25;4.65;;;17.10;99.90;;;;;;4897152;29;20123;-81
2023/06/02 09:09:49;;;;;;;15.07;4.68;;;16.90;99.90;;;;;;4897746;29;20096;-81
2023/06/02 09:12:16;;;;;;;16.95;4.47;;;16.70;99.90;;;;;;4898592;29;20489;-81
2023/06/02 09:14:42;;;;;;;19.38;4.45;;;16.90;99.90;;;;;;4896926;29;20082;-81
2023/06/02 09:17:30;;;;;;;15.35;4.72;;;17.80;99.90;;;;;;4898563;29;20362;-81
2023/06/02 09:19:58;;;;;;;15.05;4.20;;;17.50;99.90;;;;;;4898855;29;20520;-81
2023/06/02 09:22:26;;;;;;;17.23;4.13;;;17.80;99.90;;;;;;4897998;29;20417;-81
2023/06/02 09:24:53;;;;;;;15.70;3.97;;;18.00;99.90;;;;;;4901040;29;20045;-82
2023/06/02 09:27:20;;;;;;;16.08;4.00;;;18.50;99.90;;;;;;4901978;29;20088;-82
2023/06/02 09:29:47;;;;;;;14.02;4.03;;;18.40;99.90;;;;;;4898333;29;20047;-81
2023/06/02 09:32:15;;;;;;;15.60;3.33;;;18.90;99.90;;;;;;4898301;29;20052;-81
2023/06/02 09:34:41;;;;;;;14.55;3.67;;;19.00;99.90;;;;;;4898104;29;20044;-82
2023/06/02 09:37:12;;;;;;;13.10;3.22;;;19.00;99.90;;;;;;4898667;29;20044;-81
2023/06/02 09:39:46;;;;;;;11.25;3.17;;;18.90;99.90;;;;;;4897304;29;20104;-81
2023/06/02 09:42:13;;;;;;;11.07;3.28;;;19.00;99.90;;;;;;4897548;29;20052;-81
2023/06/02 09:44:40;;;;;;;10.02;3.13;;;19.00;99.90;;;;;;4898313;29;20068;-81
2023/06/02 09:47:26;;;;;;;11.65;3.33;;;19.20;99.90;;;;;;4898066;29;20104;-81
2023/06/02 09:49:52;;;;;;;12.63;3.22;;;19.50;99.90;;;;;;4897479;29;20458;-82
2023/06/02 09:52:18;;;;;;;13.35;2.72;;;19.70;99.90;;;;;;4896936;29;20390;-81
2023/06/02 09:54:45;;;;;;;10.48;2.92;;;19.80;99.90;;;;;;4898334;29;20056;-81
2023/06/02 09:57:12;;;;;;;14.52;3.20;;;20.00;99.90;;;;;;4895987;29;20084;-81
2023/06/02 09:59:39;;;;;;;11.20;2.92;;;20.10;99.90;;;;;;4898429;29;20044;-81
2023/06/02 10:02:07;;;;;;;12.77;2.95;;;20.50;99.90;;;;;;4896843;29;20053;-81
2023/06/02 10:04:33;;;;;;;13.60;3.50;;;20.80;99.90;;;;;;4896353;29;20119;-82
2023/06/02 10:07:20;;;;;;;11.45;2.83;;;21.10;99.90;;;;;;4896866;29;20533;-82
2023/06/02 10:10:10;;;;;;;10.65;2.97;;;20.40;99.40;;;;;;4895982;29;20063;-81
2023/06/02 10:13:11;;;;;;;11.55;3.08;;;20.30;99.40;;;;;;4898130;29;20044;-81
2023/06/02 10:16:01;;;;;;;13.95;3.20;;;20.60;99.10;;;;;;4896693;29;20100;-81
2023/06/02 10:18:33;;;;;;;11.13;2.90;;;21.10;98.80;;;;;;4911698;29;20048;-81
2023/06/02 10:21:46;;;;;;;13.95;2.90;;;21.40;99.80;;;;;;4896645;29;20524;-82
2023/06/02 10:24:52;;;;;;;13.40;3.17;;;21.70;99.00;;;;;;4881125;29;20449;-82
2023/06/02 10:27:33;;;;;;;14.30;3.42;;;21.40;97.40;;;;;;4897257;29;20056;-81
2023/06/02 10:29:59;;;;;;;10.23;3.42;;;21.20;98.20;;;;;;4896788;29;20056;-82
2023/06/02 10:32:45;;;;;;;11.70;3.17;;;20.90;99.20;;;;;;4903613;23;20814;-82
2023/06/02 10:35:11;;;;;;;12.23;3.42;;;21.20;98.90;;;;;;4897716;29;20044;-81
2023/06/02 10:37:39;;;;;;;15.98;3.35;;;21.10;98.40;;;;;;4896726;29;20045;-81
2023/06/02 10:40:05;;;;;;;11.40;3.10;;;21.00;98.40;;;;;;4897058;29;20055;-81
2023/06/02 10:42:31;;;;;;;12.05;3.33;;;21.00;98.30;;;;;;4896232;29;20049;-81
2023/06/02 10:45:20;;;;;;;11.38;2.95;;;20.90;98.10;;;;;;4895654;29;20052;-81
2023/06/02 10:47:47;;;;;;;11.48;2.80;;;20.30;98.00;;;;;;4897484;29;20516;-81
2023/06/02 10:50:14;;;;;;;9.98;2.95;;;20.00;98.50;;;;;;4896378;29;20076;-81
2023/06/02 10:52:58;;;;;;;12.85;3.10;;;19.90;98.80;;;;;;4895406;29;20079;-81
2023/06/02 10:55:26;;;;;;;11.70;2.63;;;19.80;98.80;;;;;;4895870;29;20049;-81
2023/06/02 10:58:03;;;;;;;11.75;3.08;;;19.70;98.90;;;;;;4896156;29;20059;-81
2023/06/02 11:00:50;;;;;;;12.45;2.90;;;19.60;98.70;;;;;;4896724;29;20108;-81
2023/06/02 11:03:15;;;;;;;11.13;2.95;;;19.60;98.90;;;;;;4896273;29;20096;-81
2023/06/02 11:05:42;;;;;;;12.80;3.30;;;19.70;99.00;;;;;;4896492;29;20049;-81
2023/06/02 11:08:21;;;;;;;10.98;3.30;;;20.10;98.90;;;;;;4895445;29;20048;-81
2023/06/02 11:10:49;;;;;;;11.40;2.67;;;20.10;98.40;;;;;;4897747;29;20457;-81
2023/06/02 11:13:26;;;;;;;8.73;2.22;;;20.00;98.60;;;;;;4896488;29;20124;-81
2023/06/02 11:15:58;;;;;;;8.60;2.45;;;19.80;97.80;;;;;;4900154;29;20131;-81
2023/06/02 11:18:28;;;;;;;10.90;2.72;;;19.70;98.00;;;;;;4899397;29;20049;-81
2023/06/02 11:20:56;;;;;;;12.48;2.92;;;19.60;97.90;;;;;;4900266;29;20609;-81
2023/06/02 11:23:22;;;;;;;10.90;2.80;;;19.40;97.80;;;;;;4899576;29;20056;-81
2023/06/02 11:26:04;;;;;;;11.40;2.83;;;19.50;98.00;;;;;;4899587;29;20059;-81
2023/06/02 11:28:30;;;;;;;11.32;2.90;;;19.60;98.20;;;;;;4899740;29;20521;-81
2023/06/02 11:31:14;;;;;;;10.93;2.65;;;19.90;98.20;;;;;;4900645;29;20084;-81
2023/06/02 11:33:41;;;;;;;8.23;2.20;;;20.00;97.10;;;;;;4900480;29;20060;-81
2023/06/02 11:36:09;;;;;;;11.98;2.58;;;19.90;97.10;;;;;;4898596;29;20064;-81
2023/06/02 11:38:35;;;;;;;9.55;2.45;;;20.00;96.90;;;;;;4899858;29;20163;-81
2023/06/02 11:41:18;;;;;;;9.55;2.35;;;20.00;96.90;;;;;;4899814;29;20116;-81
2023/06/02 11:43:47;;;;;;;7.60;2.20;;;20.40;96.70;;;;;;4900599;29;20504;-81
2023/06/02 11:46:17;;;;;;;10.23;2.30;;;21.60;96.70;;;;;;4900272;29;20525;-81
2023/06/02 11:48:44;;;;;;;10.10;2.53;;;21.70;96.60;;;;;;4899924;29;20173;-81
2023/06/02 11:51:11;;;;;;;8.30;2.17;;;22.20;95.60;;;;;;4899024;29;20075;-81
2023/06/02 11:53:44;;;;;;;7.95;2.10;;;22.30;95.50;;;;;;4900474;29;20056;-81
2023/06/02 11:56:09;;;;;;;8.45;2.33;;;22.00;95.40;;;;;;4899485;29;20087;-81
2023/06/02 11:58:43;;;;;;;9.90;2.67;;;21.60;95.40;;;;;;4899321;29;20435;-81
2023/06/02 12:01:12;;;;;;;8.05;2.30;;;21.50;95.10;;;;;;4907163;23;20052;-81
2023/06/02 12:03:38;;;;;;;8.93;2.47;;;21.80;95.70;;;;;;4899545;29;20445;-81
2023/06/02 12:06:08;;;;;;;8.18;2.67;;;22.20;94.90;;;;;;4898921;29;20135;-82
2023/06/02 12:08:35;;;;;;;10.35;2.28;;;22.30;94.30;;;;;;4900237;29;20049;-81
2023/06/02 12:11:01;;;;;;;8.40;2.30;;;22.10;94.40;;;;;;4898141;29;20040;-81
2023/06/02 12:13:31;;;;;;;8.23;2.22;;;21.90;94.30;;;;;;4898527;29;20051;-81
2023/06/02 12:16:20;;;;;;;9.10;2.17;;;21.80;94.10;;;;;;4899010;29;20112;-81
2023/06/02 12:18:46;;;;;;;10.23;2.20;;;21.60;94.00;;;;;;4899029;29;20079;-81
2023/06/02 12:21:22;;;;;;;7.40;2.05;;;21.50;94.30;;;;;;4899859;29;20076;-81
2023/06/02 12:23:48;;;;;;;7.55;2.13;;;21.80;94.10;;;;;;4898402;29;20370;-81
2023/06/02 12:26:16;;;;;;;9.35;2.30;;;22.20;94.00;;;;;;4899747;29;20048;-81
2023/06/02 12:28:41;;;;;;;8.35;2.05;;;22.70;93.10;;;;;;4900045;29;20446;-81
2023/06/02 12:31:07;;;;;;;6.28;2.13;;;23.00;92.60;;;;;;4899477;29;20109;-81
2023/06/02 12:33:34;;;;;;;7.78;2.15;;;23.30;92.40;;;;;;4898462;29;20134;-81
2023/06/02 12:35:59;;;;;;;8.40;2.10;;;23.60;92.30;;;;;;4898978;29;20052;-81
2023/06/02 12:38:25;;;;;;;6.63;1.80;;;23.90;91.70;;;;;;4898767;29;20488;-81
2023/06/02 12:40:51;;;;;;;6.80;1.90;;;24.20;91.30;;;;;;4898251;29;20055;-81
2023/06/02 12:43:18;;;;;;;6.80;2.17;;;24.00;90.50;;;;;;4899441;29;20060;-82
2023/06/02 12:45:44;;;;;;;6.40;2.00;;;24.20;90.90;;;;;;4898840;29;20533;-81